| time (UTC) | temp F | wind direction | speed knots | gust knots | rain 1hr in | rain 24hr in | rain mn in | humidity % | barometer mb |
| 20260502181510 | 73 | 20 | 8.7 | 12.2 | 0.00 | 0.00 | 0.00 | 34 | 1018.2 |
| 20260502181008 | 74 | 32 | 0.9 | 7.0 | 0.00 | 0.00 | 0.00 | 33 | 1018.3 |
| 20260502180504 | 72 | 7 | 3.5 | 6.1 | 0.00 | 0.00 | 0.00 | 37 | 1018.5 |
| 20260502170418 | 72 | 22 | 9.6 | 19.1 | 0.00 | 0.00 | 0.00 | 36 | 1018.5 |
| 20260502163901 | 71 | 18 | 5.2 | 8.7 | 0.00 | 0.00 | 0.00 | 43 | 1018.3 |
| 20260502163358 | 70 | 38 | 5.2 | 8.7 | 0.00 | 0.00 | 0.00 | 45 | 1018.3 |
| 20260502162855 | 70 | 8 | 7.8 | 11.3 | 0.00 | 0.00 | 0.00 | 46 | 1018.2 |
| 20260502162352 | 70 | 18 | 3.5 | 11.3 | 0.00 | 0.00 | 0.00 | 43 | 1018.3 |
| 20260502161849 | 69 | 42 | 3.5 | 8.7 | 0.00 | 0.00 | 0.00 | 47 | 1018.0 |
| 20260502161345 | 69 | 21 | 5.2 | 11.3 | 0.00 | 0.00 | 0.00 | 49 | 1018.2 |
| 20260502160843 | 69 | 53 | 4.3 | 9.6 | 0.00 | 0.00 | 0.00 | 49 | 1018.0 |
| 20260502160341 | 68 | 100 | 3.5 | 12.2 | 0.00 | 0.00 | 0.00 | 48 | 1018.3 |
| 20260502152322 | 67 | 27 | 3.5 | 9.6 | 0.00 | 0.00 | 0.00 | 56 | 1018.2 |
| 20260502151820 | 66 | 41 | 7.0 | 11.3 | 0.00 | 0.00 | 0.00 | 56 | 1018.1 |
| 20260502151316 | 66 | 10 | 8.7 | 13.0 | 0.00 | 0.00 | 0.00 | 57 | 1018.1 |
| 20260502150814 | 65 | 343 | 6.1 | 13.0 | 0.00 | 0.00 | 0.00 | 59 | 1018.4 |
| 20260502150310 | 65 | 40 | 2.6 | 12.2 | 0.00 | 0.00 | 0.00 | 61 | 1018.1 |
| 20260502130659 | 58 | 38 | 1.7 | 6.1 | 0.00 | 0.00 | 0.00 | 76 | 1017.0 |
| 20260502130156 | 58 | 12 | 4.3 | 11.3 | 0.00 | 0.00 | 0.00 | 77 | 1017.3 |
| 20260502123642 | 56 | 34 | 2.6 | 7.0 | 0.00 | 0.00 | 0.00 | 79 | 1016.9 |
| 20260502123139 | 56 | 26 | 3.5 | 5.2 | 0.00 | 0.00 | 0.00 | 80 | 1016.6 |
| 20260502122635 | 56 | 321 | 7.0 | 8.7 | 0.00 | 0.00 | 0.00 | 81 | 1016.6 |
| 20260502122132 | 56 | 19 | 2.6 | 8.7 | 0.00 | 0.00 | 0.00 | 81 | 1016.5 |
| 20260502121630 | 55 | 44 | 2.6 | 3.5 | 0.00 | 0.00 | 0.00 | 82 | 1016.2 |
| 20260502121127 | 55 | 40 | 0.0 | 9.6 | 0.00 | 0.00 | 0.00 | 82 | 1016.3 |
| 20260502120624 | 55 | 47 | 2.6 | 8.7 | 0.00 | 0.00 | 0.00 | 82 | 1016.1 |
| 20260502120120 | 55 | 51 | 4.3 | 8.7 | 0.00 | 0.00 | 0.00 | 83 | 1016.1 |
| 20260502115618 | 54 | 38 | 0.9 | 7.0 | 0.00 | 0.00 | 0.00 | 83 | 1016.1 |
| 20260502115114 | 54 | 31 | 2.6 | 7.0 | 0.00 | 0.00 | 0.00 | 83 | 1015.8 |
| 20260502114610 | 54 | 335 | 2.6 | 7.0 | 0.00 | 0.00 | 0.00 | 83 | 1016.0 |
| 20260502114108 | 54 | 24 | 4.3 | 6.1 | 0.00 | 0.00 | 0.00 | 82 | 1015.9 |
| 20260502113605 | 55 | 42 | 1.7 | 7.0 | 0.00 | 0.00 | 0.00 | 82 | 1015.9 |
| 20260502113104 | 55 | 17 | 3.5 | 7.0 | 0.00 | 0.00 | 0.00 | 81 | 1015.8 |
| 20260502112601 | 55 | 353 | 3.5 | 7.0 | 0.00 | 0.00 | 0.00 | 80 | 1015.6 |
| 20260502112058 | 55 | 4 | 2.6 | 8.7 | 0.00 | 0.00 | 0.00 | 78 | 1015.8 |
| 20260502111556 | 55 | 333 | 3.5 | 7.0 | 0.00 | 0.00 | 0.00 | 78 | 1015.5 |
| 20260502111053 | 55 | 49 | 3.5 | 8.7 | 0.00 | 0.00 | 0.00 | 78 | 1015.5 |
| 20260502110550 | 55 | 29 | 1.7 | 8.7 | 0.00 | 0.00 | 0.00 | 78 | 1015.7 |
| 20260502110048 | 54 | 30 | 1.7 | 5.2 | 0.00 | 0.00 | 0.00 | 79 | 1015.6 |
| 20260502105545 | 54 | 23 | 2.6 | 7.0 | 0.00 | 0.00 | 0.00 | 79 | 1015.5 |
| 20260502105042 | 54 | 5 | 0.9 | 5.2 | 0.00 | 0.00 | 0.00 | 79 | 1015.4 |
| 20260502104539 | 54 | 3 | 1.7 | 8.7 | 0.00 | 0.00 | 0.00 | 79 | 1015.3 |
| 20260502104037 | 54 | 24 | 4.3 | 7.0 | 0.00 | 0.00 | 0.00 | 79 | 1015.2 |
| 20260502103534 | 54 | 25 | 3.5 | 7.0 | 0.00 | 0.00 | 0.00 | 79 | 1015.1 |
| 20260502103032 | 55 | 15 | 3.5 | 6.1 | 0.00 | 0.00 | 0.00 | 79 | 1014.8 |
| 20260502102528 | 55 | 23 | 2.6 | 6.1 | 0.00 | 0.00 | 0.00 | 78 | 1015.0 |
| 20260502102026 | 54 | 350 | 2.6 | 6.1 | 0.00 | 0.00 | 0.00 | 79 | 1015.0 |
| 20260502101523 | 55 | 36 | 0.9 | 6.1 | 0.00 | 0.00 | 0.00 | 80 | 1014.6 |
| 20260502101022 | 55 | 350 | 5.2 | 7.0 | 0.00 | 0.00 | 0.00 | 80 | 1014.6 |
| 20260502100520 | 55 | 3 | 2.6 | 6.1 | 0.00 | 0.00 | 0.00 | 80 | 1014.3 |
| 20260502091454 | 55 | 18 | 4.3 | 13.0 | 0.00 | 0.00 | 0.00 | 80 | 1013.8 |
| 20260502090952 | 55 | 11 | 4.3 | 7.0 | 0.00 | 0.00 | 0.00 | 80 | 1013.3 |
| 20260502090448 | 55 | 31 | 7.0 | 8.7 | 0.00 | 0.00 | 0.00 | 80 | 1013.8 |
| 20260502071343 | 57 | 15 | 3.5 | 9.6 | 0.00 | 0.00 | 0.00 | 82 | 1013.5 |
| 20260502070841 | 57 | 5 | 4.3 | 12.2 | 0.00 | 0.00 | 0.00 | 83 | 1014.0 |
| 20260502070338 | 57 | 77 | 5.2 | 11.3 | 0.00 | 0.00 | 0.00 | 84 | 1013.5 |
| 20260502065837 | 57 | 45 | 1.7 | 7.0 | 0.00 | 0.00 | 0.00 | 84 | 1013.5 |
| 20260502065335 | 57 | 33 | 2.6 | 6.1 | 0.00 | 0.00 | 0.00 | 84 | 1013.6 |
| 20260502064832 | 57 | 44 | 8.7 | 12.2 | 0.00 | 0.00 | 0.00 | 84 | 1013.5 |
| 20260502064330 | 57 | 22 | 2.6 | 6.1 | 0.00 | 0.00 | 0.00 | 84 | 1013.4 |
| 20260502063827 | 57 | 71 | 1.7 | 5.2 | 0.00 | 0.00 | 0.00 | 84 | 1013.4 |
| 20260502063325 | 57 | 21 | 0.9 | 7.0 | 0.00 | 0.00 | 0.00 | 83 | 1013.1 |
| 20260502062822 | 57 | 61 | 2.6 | 7.0 | 0.00 | 0.00 | 0.00 | 83 | 1013.4 |
| 20260502062320 | 57 | 37 | 5.2 | 8.7 | 0.00 | 0.00 | 0.00 | 83 | 1013.3 |
| 20260502061818 | 57 | 78 | 7.0 | 13.0 | 0.00 | 0.00 | 0.00 | 83 | 1013.4 |
| 20260502061316 | 57 | 44 | 3.5 | 9.6 | 0.00 | 0.00 | 0.00 | 83 | 1013.4 |
| 20260502060811 | 57 | 30 | 3.5 | 9.6 | 0.00 | 0.00 | 0.00 | 83 | 1013.4 |
| 20260502060306 | 57 | 32 | 5.2 | 7.0 | 0.00 | 0.00 | 0.00 | 83 | 1013.3 |
| 20260502055805 | 57 | 51 | 2.6 | 13.0 | 0.00 | 0.00 | 0.00 | 83 | 1013.2 |
| 20260502055305 | 57 | 31 | 7.8 | 11.3 | 0.00 | 0.00 | 0.00 | 83 | 1013.4 |
| 20260502054801 | 57 | 38 | 2.6 | 9.6 | 0.00 | 0.00 | 0.00 | 83 | 1013.3 |
| 20260502054259 | 57 | 24 | 0.0 | 13.0 | 0.00 | 0.00 | 0.00 | 84 | 1013.5 |
| 20260502053756 | 57 | 14 | 7.0 | 13.0 | 0.00 | 0.00 | 0.00 | 84 | 1013.6 |
| 20260502053253 | 57 | 13 | 4.3 | 13.0 | 0.00 | 0.00 | 0.00 | 85 | 1013.8 |
| 20260502052751 | 57 | 34 | 2.6 | 8.7 | 0.00 | 0.00 | 0.00 | 85 | 1013.9 |
| 20260502052249 | 57 | 358 | 9.6 | 12.2 | 0.00 | 0.00 | 0.00 | 85 | 1014.0 |
| 20260502051746 | 57 | 14 | 7.0 | 9.6 | 0.00 | 0.00 | 0.00 | 85 | 1013.8 |
| 20260502051245 | 57 | 12 | 7.0 | 12.2 | 0.00 | 0.00 | 0.00 | 85 | 1013.4 |
| 20260502050741 | 57 | 19 | 5.2 | 12.2 | 0.00 | 0.00 | 0.00 | 85 | 1013.5 |
| 20260502050236 | 57 | 31 | 4.3 | 14.8 | 0.00 | 0.00 | 0.00 | 85 | 1013.8 |
| 20260502045734 | 57 | 13 | 7.8 | 11.3 | 0.00 | 2.55 | 2.55 | 85 | 1013.9 |
| 20260502045231 | 57 | 27 | 2.6 | 15.6 | 0.00 | 2.55 | 2.55 | 85 | 1013.6 |
| 20260502044728 | 57 | 22 | 5.2 | 7.0 | 0.00 | 2.55 | 2.55 | 86 | 1013.5 |
| 20260502044224 | 57 | 358 | 12.2 | 15.6 | 0.00 | 2.55 | 2.55 | 86 | 1013.6 |
| 20260502043721 | 57 | 29 | 6.1 | 12.2 | 0.00 | 2.55 | 2.55 | 86 | 1013.7 |
| 20260502043219 | 57 | 46 | 4.3 | 13.0 | 0.00 | 2.55 | 2.55 | 86 | 1013.6 |
| 20260502042718 | 57 | 50 | 3.5 | 13.0 | 0.00 | 2.55 | 2.55 | 86 | 1013.5 |
| 20260502042216 | 57 | 21 | 7.0 | 9.6 | 0.00 | 2.55 | 2.55 | 86 | 1013.5 |
| 20260502041713 | 57 | 17 | 7.0 | 12.2 | 0.00 | 2.55 | 2.55 | 86 | 1013.8 |
| 20260502041210 | 57 | 35 | 7.8 | 15.6 | 0.00 | 2.55 | 2.55 | 86 | 1013.6 |
| 20260502040707 | 57 | 0 | 10.4 | 14.8 | 0.00 | 2.55 | 2.55 | 86 | 1013.4 |
| 20260502040204 | 57 | 312 | 8.7 | 18.2 | 0.00 | 2.55 | 2.55 | 87 | 1013.4 |
| 20260502035700 | 57 | 22 | 5.2 | 13.0 | 0.00 | 2.55 | 2.55 | 87 | 1013.1 |
| 20260502035157 | 57 | 359 | 12.2 | 17.4 | 0.00 | 2.55 | 2.55 | 88 | 1013.0 |
| 20260502034655 | 57 | 22 | 7.8 | 13.0 | 0.00 | 2.55 | 2.55 | 88 | 1012.9 |
| 20260502034153 | 58 | 56 | 7.8 | 13.0 | 0.00 | 2.55 | 2.55 | 88 | 1012.6 |
| 20260502033651 | 58 | 23 | 8.7 | 12.2 | 0.00 | 2.55 | 2.55 | 88 | 1012.8 |
| 20260502033148 | 58 | 8 | 6.1 | 13.0 | 0.00 | 2.55 | 2.55 | 88 | 1012.5 |
| 20260502032644 | 58 | 18 | 7.8 | 12.2 | 0.00 | 2.55 | 2.55 | 89 | 1012.4 |
| 20260502032141 | 58 | 21 | 4.3 | 11.3 | 0.00 | 2.55 | 2.55 | 89 | 1012.1 |
| 20260502031638 | 58 | 310 | 7.0 | 12.2 | 0.00 | 2.55 | 2.55 | 89 | 1012.1 |
| 20260502031136 | 58 | 1 | 6.1 | 11.3 | 0.07 | 2.55 | 2.55 | 89 | 1011.9 |
| 20260502030635 | 58 | 32 | 6.1 | 14.8 | 0.24 | 2.55 | 2.55 | 89 | 1011.6 |
| 20260502030133 | 58 | 21 | 4.3 | 11.3 | 0.24 | 2.54 | 2.54 | 89 | 1011.3 |
| 20260502025629 | 59 | 38 | 0.9 | 7.0 | 0.07 | 2.51 | 2.51 | 89 | 1011.4 |
| 20260502025127 | 59 | 16 | 6.1 | 9.6 | 0.00 | 2.50 | 2.50 | 89 | 1011.7 |
| 20260502024625 | 59 | 21 | 6.1 | 14.8 | 0.05 | 2.50 | 2.50 | 89 | 1011.7 |
| 20260502024123 | 59 | 47 | 1.7 | 6.1 | 0.12 | 2.50 | 2.50 | 89 | 1011.7 |
| 20260502023621 | 59 | 327 | 6.1 | 8.7 | 0.07 | 2.49 | 2.49 | 89 | 1011.8 |
| 20260502023118 | 59 | 352 | 7.8 | 12.2 | 0.07 | 2.48 | 2.48 | 89 | 1011.9 |
| 20260502022614 | 59 | 351 | 8.7 | 11.3 | 0.07 | 2.48 | 2.48 | 89 | 1011.7 |
| 20260502022112 | 59 | 347 | 6.1 | 8.7 | 0.00 | 2.47 | 2.47 | 89 | 1011.7 |
| 20260502021609 | 59 | 11 | 7.8 | 13.0 | 0.05 | 2.47 | 2.47 | 89 | 1011.7 |
| 20260502021106 | 59 | 19 | 4.3 | 7.0 | 0.05 | 2.47 | 2.47 | 89 | 1011.7 |
| 20260502020604 | 59 | 15 | 2.6 | 7.0 | 0.00 | 2.46 | 2.46 | 89 | 1011.7 |
| 20260502020100 | 59 | 22 | 6.1 | 12.2 | 0.00 | 2.46 | 2.46 | 89 | 1011.7 |
| 20260502015558 | 59 | 19 | 7.8 | 14.8 | 0.00 | 2.46 | 2.46 | 90 | 1011.3 |
| 20260502015054 | 59 | 16 | 7.8 | 11.3 | 0.00 | 2.46 | 2.46 | 90 | 1011.2 |
| 20260502014551 | 59 | 25 | 7.8 | 14.8 | 0.00 | 2.46 | 2.46 | 90 | 1011.2 |
| 20260502014048 | 59 | 5 | 1.7 | 5.2 | 0.00 | 2.46 | 2.46 | 90 | 1011.1 |
| 20260502013543 | 59 | 353 | 8.7 | 9.6 | 0.07 | 2.46 | 2.46 | 90 | 1010.8 |
| 20260502013040 | 59 | 352 | 7.0 | 9.6 | 0.12 | 2.45 | 2.45 | 90 | 1010.8 |
| 20260502012537 | 60 | 33 | 3.5 | 7.0 | 0.17 | 2.45 | 2.45 | 90 | 1010.7 |
| 20260502012035 | 59 | 348 | 3.5 | 9.6 | 0.12 | 2.43 | 2.43 | 90 | 1010.4 |
| 20260502011532 | 59 | 6 | 10.4 | 13.0 | 0.05 | 2.41 | 2.41 | 90 | 1010.1 |
| 20260502011028 | 60 | 6 | 4.3 | 8.7 | 0.05 | 2.41 | 2.41 | 90 | 1009.7 |
| 20260502010526 | 59 | 30 | 2.6 | 5.2 | 0.07 | 2.40 | 2.40 | 90 | 1009.4 |
| 20260502010021 | 59 | 47 | 2.6 | 7.0 | 0.12 | 2.40 | 2.40 | 90 | 1009.1 |
| 20260502005520 | 59 | 99 | 7.0 | 9.6 | 0.17 | 2.39 | 2.39 | 90 | 1009.0 |
| 20260502005017 | 59 | 42 | 7.8 | 11.3 | 0.38 | 2.38 | 2.38 | 89 | 1008.9 |
| 20260502004513 | 59 | 43 | 5.2 | 9.6 | 0.50 | 2.36 | 2.36 | 89 | 1009.1 |
| 20260502004009 | 60 | 357 | 5.2 | 9.6 | 0.35 | 2.32 | 2.32 | 89 | 1009.4 |
| 20260502003508 | 60 | 352 | 8.7 | 17.4 | 0.12 | 2.27 | 2.27 | 89 | 1009.6 |
| 20260502003004 | 60 | 4 | 9.6 | 13.0 | 0.12 | 2.26 | 2.26 | 89 | 1009.3 |
| 20260502002501 | 60 | 4 | 4.3 | 12.2 | 0.19 | 2.25 | 2.25 | 89 | 1009.7 |
| 20260502001958 | 60 | 20 | 7.0 | 12.2 | 0.12 | 2.24 | 2.24 | 89 | 1008.9 |
| 20260502001455 | 60 | 28 | 6.1 | 9.6 | 0.00 | 2.22 | 2.22 | 89 | 1008.7 |
| 20260502000953 | 60 | 16 | 1.7 | 5.2 | 0.00 | 2.22 | 2.22 | 89 | 1008.2 |
| 20260502000454 | 60 | 43 | 1.7 | 8.7 | 0.07 | 2.22 | 2.22 | 89 | 1008.8 |
| 20260501235947 | 60 | 14 | 5.2 | 12.2 | 0.12 | 2.22 | 2.22 | 89 | 1008.6 |
| 20260501235443 | 60 | 31 | 5.2 | 11.3 | 0.12 | 2.21 | 2.21 | 89 | 1009.0 |
| 20260501234938 | 60 | 9 | 8.7 | 17.4 | 0.07 | 2.20 | 2.20 | 89 | 1009.1 |
| 20260501234435 | 61 | 45 | 7.8 | 13.0 | 0.00 | 2.19 | 2.19 | 89 | 1008.5 |
| 20260501233934 | 61 | 340 | 7.8 | 11.3 | 0.05 | 2.19 | 2.19 | 89 | 1008.4 |
| 20260501233431 | 61 | 19 | 2.6 | 9.6 | 0.12 | 2.19 | 2.19 | 89 | 1008.1 |
| 20260501232927 | 61 | 44 | 7.0 | 9.6 | 0.12 | 2.18 | 2.18 | 89 | 1007.8 |
| 20260501232424 | 61 | 56 | 2.6 | 11.3 | 0.12 | 2.17 | 2.17 | 89 | 1007.7 |
| 20260501231921 | 61 | 44 | 3.5 | 12.2 | 0.07 | 2.16 | 2.16 | 89 | 1007.7 |
| 20260501231420 | 62 | 65 | 7.8 | 13.0 | 0.00 | 2.15 | 2.15 | 90 | 1008.0 |
| 20260501230917 | 62 | 21 | 2.6 | 12.2 | 0.00 | 2.15 | 2.15 | 90 | 1008.0 |
| 20260501230416 | 62 | 44 | 3.5 | 9.6 | 0.00 | 2.15 | 2.15 | 90 | 1007.8 |
| 20260501225913 | 61 | 54 | 6.1 | 18.2 | 0.00 | 2.15 | 2.15 | 90 | 1007.7 |
| 20260501225410 | 61 | 33 | 2.6 | 8.7 | 0.05 | 2.15 | 2.15 | 90 | 1008.2 |
| 20260501224906 | 61 | 76 | 0.0 | 8.7 | 0.00 | 2.14 | 2.14 | 90 | 1008.3 |
| 20260501224404 | 62 | 33 | 3.5 | 9.6 | 0.00 | 2.14 | 2.14 | 90 | 1008.6 |
| 20260501223900 | 62 | 63 | 1.7 | 6.1 | 0.07 | 2.14 | 2.14 | 90 | 1008.4 |
| 20260501223356 | 62 | 40 | 9.6 | 14.8 | 0.00 | 2.13 | 2.13 | 90 | 1008.4 |
| 20260501222852 | 62 | 44 | 0.9 | 5.2 | 0.00 | 2.13 | 2.13 | 90 | 1008.8 |
| 20260501222350 | 62 | 13 | 7.8 | 13.0 | 0.00 | 2.13 | 2.13 | 90 | 1008.9 |
| 20260501221846 | 62 | 64 | 3.5 | 6.1 | 0.00 | 2.13 | 2.13 | 90 | 1008.9 |
| 20260501221343 | 62 | 39 | 3.5 | 12.2 | 0.00 | 2.13 | 2.13 | 90 | 1008.9 |
| 20260501220842 | 62 | 46 | 6.1 | 13.0 | 0.00 | 2.13 | 2.13 | 90 | 1008.8 |
| 20260501220338 | 62 | 61 | 3.5 | 11.3 | 0.00 | 2.13 | 2.13 | 90 | 1008.7 |
| 20260501215835 | 62 | 59 | 2.6 | 6.1 | 0.00 | 2.13 | 2.13 | 91 | 1008.5 |
| 20260501215331 | 63 | 40 | 5.2 | 9.6 | 0.00 | 2.13 | 2.13 | 91 | 1008.4 |
| 20260501214827 | 62 | 36 | 4.3 | 12.2 | 0.05 | 2.13 | 2.13 | 90 | 1008.5 |
| 20260501214322 | 62 | 25 | 2.6 | 5.2 | 0.05 | 2.13 | 2.13 | 90 | 1008.6 |
| 20260501213819 | 62 | 69 | 1.7 | 6.1 | 0.14 | 2.12 | 2.12 | 90 | 1008.3 |
| 20260501213315 | 63 | 35 | 2.6 | 9.6 | 0.31 | 2.12 | 2.12 | 90 | 1007.8 |
| 20260501212811 | 63 | 61 | 7.8 | 14.8 | 0.35 | 2.10 | 2.10 | 90 | 1007.2 |
| 20260501212308 | 63 | 87 | 4.3 | 8.7 | 0.42 | 2.07 | 2.07 | 90 | 1007.3 |
| 20260501211805 | 63 | 56 | 0.9 | 6.1 | 0.54 | 2.04 | 2.04 | 90 | 1008.6 |
| 20260501211302 | 63 | 356 | 1.7 | 7.0 | 0.38 | 1.99 | 1.99 | 90 | 1008.3 |
| 20260501210759 | 63 | 0 | 3.5 | 9.6 | 0.17 | 1.95 | 1.95 | 90 | 1007.9 |
| 20260501210255 | 64 | 37 | 4.3 | 9.6 | 0.17 | 1.93 | 1.93 | 90 | 1007.9 |
| 20260501205752 | 64 | 79 | 3.5 | 7.0 | 0.12 | 1.92 | 1.92 | 90 | 1007.9 |
| 20260501205249 | 64 | 39 | 4.3 | 8.7 | 0.07 | 1.90 | 1.90 | 90 | 1008.1 |
| 20260501204746 | 64 | 106 | 0.0 | 3.5 | 0.19 | 1.90 | 1.90 | 90 | 1008.0 |
| 20260501204243 | 64 | 31 | 0.0 | 0.0 | 0.24 | 1.89 | 1.89 | 90 | 1007.8 |
| 20260501203739 | 64 | 60 | 0.0 | 2.6 | 0.24 | 1.87 | 1.87 | 90 | 1007.6 |
| 20260501203236 | 64 | 72 | 0.9 | 2.6 | 0.66 | 1.85 | 1.85 | 90 | 1007.4 |
| 20260501202733 | 64 | 52 | 1.7 | 6.1 | 1.09 | 1.83 | 1.83 | 90 | 1007.3 |
| 20260501202230 | 64 | 60 | 6.1 | 17.4 | 0.90 | 1.73 | 1.73 | 90 | 1006.2 |
| 20260501201727 | 63 | 78 | 3.5 | 8.7 | 0.90 | 1.65 | 1.65 | 90 | 1007.1 |
| 20260501201223 | 63 | 55 | 5.2 | 9.6 | 0.47 | 1.58 | 1.58 | 90 | 1007.5 |
| 20260501200720 | 63 | 40 | 2.6 | 9.6 | 0.24 | 1.50 | 1.50 | 90 | 1006.9 |
| 20260501200218 | 63 | 45 | 0.9 | 7.0 | 0.54 | 1.50 | 1.50 | 90 | 1007.0 |
| 20260501195715 | 63 | 38 | 8.7 | 12.2 | 1.44 | 1.46 | 1.46 | 89 | 1006.9 |
| 20260501195211 | 63 | 28 | 3.5 | 9.6 | 2.17 | 1.40 | 1.40 | 89 | 1006.7 |
| 20260501194707 | 64 | 62 | 6.1 | 11.3 | 1.28 | 1.18 | 1.18 | 88 | 1006.6 |
| 20260501194202 | 64 | 75 | 1.7 | 3.5 | 0.26 | 1.01 | 1.01 | 88 | 1008.4 |
| 20260501193659 | 64 | 28 | 0.0 | 5.2 | 0.12 | 0.97 | 0.97 | 88 | 1008.5 |
| 20260501193158 | 64 | 27 | 0.0 | 6.1 | 0.12 | 0.96 | 0.96 | 88 | 1007.1 |
| 20260501192655 | 64 | 356 | 3.5 | 13.0 | 0.07 | 0.94 | 0.94 | 88 | 1006.4 |
| 20260501192152 | 64 | 94 | 9.6 | 12.2 | 0.07 | 0.94 | 0.94 | 88 | 1007.1 |
| 20260501191649 | 64 | 32 | 3.5 | 11.3 | 0.00 | 0.93 | 0.93 | 88 | 1007.1 |
| 20260501191141 | 64 | 16 | 7.0 | 9.6 | 0.00 | 0.93 | 0.93 | 88 | 1007.4 |
| 20260501190637 | 64 | 34 | 2.6 | 13.0 | 0.00 | 0.93 | 0.93 | 88 | 1007.8 |
| 20260501190132 | 64 | 52 | 5.2 | 12.2 | 0.00 | 0.93 | 0.93 | 88 | 1007.1 |
| 20260501185628 | 64 | 76 | 7.0 | 9.6 | 0.00 | 0.93 | 0.93 | 88 | 1007.2 |
| 20260501185123 | 64 | 337 | 4.3 | 6.1 | 0.00 | 0.93 | 0.93 | 89 | 1007.4 |
| 20260501184620 | 64 | 334 | 5.2 | 7.0 | 0.00 | 0.93 | 0.93 | 89 | 1008.2 |
| 20260501184115 | 64 | 328 | 2.6 | 3.5 | 0.00 | 0.93 | 0.93 | 89 | 1008.2 |
| 20260501183613 | 64 | 22 | 0.0 | 6.1 | 0.00 | 0.93 | 0.93 | 89 | 1007.6 |
| 20260501183109 | 64 | 64 | 4.3 | 8.7 | 0.00 | 0.93 | 0.93 | 89 | 1007.5 |
| 20260501182605 | 64 | 39 | 3.5 | 9.6 | 0.00 | 0.93 | 0.93 | 89 | 1007.7 |
| 20260501182102 | 64 | 24 | 1.7 | 7.0 | 0.00 | 0.93 | 0.93 | 89 | 1007.8 |